createdAt,value
2017-05-04T00:07:36.201Z,52.76
2017-05-04T00:07:36.841Z,52.77
2017-05-04T00:07:38.759Z,52.73
2017-05-04T00:07:38.979Z,52.69
2017-05-04T00:08:10.847Z,52.69
2017-05-04T00:09:13.519Z,52.70
2017-05-04T00:10:13.678Z,52.70
2017-05-04T00:11:13.288Z,52.73
2017-05-04T00:12:12.395Z,52.72
2017-05-04T00:13:12.389Z,52.64
2017-05-04T00:14:12.585Z,52.66
2017-05-04T00:15:13.423Z,52.69
2017-05-04T00:16:12.579Z,52.67
2017-05-04T00:17:15.640Z,52.68
2017-05-04T00:18:13.564Z,52.65
2017-05-04T00:19:12.698Z,52.63
2017-05-04T00:20:13.503Z,52.65
2017-05-04T00:21:12.598Z,52.65
2017-05-04T00:22:12.755Z,52.63
2017-05-04T00:23:13.393Z,52.63
2017-05-04T00:24:12.648Z,52.60
2017-05-04T00:25:14.026Z,52.60
2017-05-04T00:26:12.765Z,52.59
2017-05-04T00:27:14.193Z,52.52
2017-05-04T00:28:12.403Z,52.58
2017-05-04T00:29:13.859Z,52.60
2017-05-04T00:30:13.743Z,52.60
2017-05-04T00:31:13.766Z,52.54
2017-05-04T00:32:12.769Z,52.50
2017-05-04T00:33:11.538Z,52.54
2017-05-04T00:34:12.767Z,52.55
2017-05-04T00:35:13.168Z,52.56
2017-05-04T00:36:16.109Z,52.57
2017-05-04T00:37:13.057Z,52.51
2017-05-04T00:38:12.250Z,52.51
2017-05-04T00:39:13.101Z,52.49
2017-05-04T00:40:13.785Z,52.49
2017-05-04T00:41:11.014Z,52.55
2017-05-04T00:42:12.316Z,52.50
2017-05-04T00:43:14.451Z,52.50
2017-05-04T00:44:13.186Z,52.50
2017-05-04T00:45:13.368Z,52.47
2017-05-04T00:46:10.577Z,52.50
2017-05-04T00:47:12.938Z,52.50
2017-05-04T00:48:12.752Z,52.50
2017-05-04T00:49:12.977Z,52.46
2017-05-04T00:50:12.764Z,52.45
2017-05-04T00:51:14.332Z,52.47
2017-05-04T00:52:14.261Z,52.47
2017-05-04T00:53:12.531Z,52.46
2017-05-04T00:54:13.220Z,52.33
2017-05-04T00:55:12.359Z,51.67
2017-05-04T00:56:09.555Z,51.52
2017-05-04T00:57:10.099Z,51.37
2017-05-04T00:58:12.214Z,51.42
2017-05-04T00:59:13.180Z,52.12
2017-05-04T01:00:13.847Z,52.29
2017-05-04T01:01:13.116Z,52.33
2017-05-04T01:02:12.760Z,52.35
2017-05-04T01:03:13.642Z,52.28
2017-05-04T01:04:13.314Z,51.60
2017-05-04T01:05:12.392Z,51.42
2017-05-04T01:06:12.840Z,51.36
2017-05-04T01:07:13.000Z,51.32
2017-05-04T01:08:12.018Z,51.31
2017-05-04T01:09:14.882Z,51.26
2017-05-04T01:10:13.590Z,51.34
2017-05-04T01:11:12.788Z,52.07
2017-05-04T01:12:12.985Z,52.24
2017-05-04T01:13:12.238Z,52.29
2017-05-04T01:14:13.274Z,52.34
2017-05-04T01:15:11.322Z,52.37
2017-05-04T01:16:12.741Z,52.37
2017-05-04T01:17:12.984Z,52.37
2017-05-04T01:18:12.752Z,52.38
2017-05-04T01:19:14.646Z,52.37
2017-05-04T01:20:13.502Z,52.40
2017-05-04T01:21:11.715Z,52.25
2017-05-04T01:22:13.199Z,51.56
2017-05-04T01:23:12.409Z,51.61
2017-05-04T01:24:11.341Z,52.16
2017-05-04T01:25:13.131Z,52.27
2017-05-04T01:26:12.711Z,52.30
2017-05-04T01:27:14.286Z,52.28
2017-05-04T01:28:13.637Z,52.31
2017-05-04T01:29:13.558Z,52.34
2017-05-04T01:30:13.907Z,52.31
2017-05-04T01:31:16.955Z,52.29
2017-05-04T01:32:11.207Z,52.19
2017-05-04T01:33:13.822Z,52.32
2017-05-04T01:34:13.046Z,52.32
2017-05-04T01:35:12.410Z,52.33
2017-05-04T01:36:12.592Z,52.33
2017-05-04T01:37:12.670Z,52.32
2017-05-04T01:38:13.595Z,52.31
2017-05-04T01:39:13.378Z,52.27
2017-05-04T01:40:12.650Z,52.28
2017-05-04T01:41:12.703Z,52.23
2017-05-04T01:42:15.507Z,52.19
2017-05-04T01:43:12.570Z,52.23
2017-05-04T01:44:13.295Z,52.28
2017-05-04T01:45:14.181Z,52.27
2017-05-04T01:46:15.217Z,52.25
2017-05-04T01:47:12.951Z,52.27
2017-05-04T01:48:12.982Z,52.22
2017-05-04T01:49:12.712Z,52.19
2017-05-04T01:50:14.428Z,52.20
2017-05-04T01:51:12.614Z,52.24
2017-05-04T01:52:12.762Z,52.23
2017-05-04T01:53:13.681Z,52.12
2017-05-04T01:54:13.047Z,52.20
2017-05-04T01:55:12.646Z,52.20
2017-05-04T01:56:13.718Z,52.19
2017-05-04T01:57:15.588Z,52.18
2017-05-04T01:58:13.384Z,52.13
2017-05-04T01:59:12.993Z,52.16
2017-05-04T02:00:12.647Z,52.20
2017-05-04T02:01:13.549Z,52.21
2017-05-04T02:02:12.667Z,52.21
2017-05-04T02:03:12.910Z,52.19
2017-05-04T02:04:13.179Z,52.18
2017-05-04T02:05:13.750Z,52.21
2017-05-04T02:06:12.859Z,52.19
2017-05-04T02:07:11.774Z,52.21
2017-05-04T02:08:13.835Z,51.36
2017-05-04T02:09:10.864Z,51.20
2017-05-04T02:10:12.217Z,51.14
2017-05-04T02:11:13.232Z,51.13
2017-05-04T02:12:12.962Z,51.37
2017-05-04T02:13:13.213Z,51.88
2017-05-04T02:14:12.549Z,52.00
2017-05-04T02:15:12.704Z,52.08
2017-05-04T02:16:13.275Z,52.14
2017-05-04T02:17:12.769Z,52.04
2017-05-04T02:18:13.385Z,51.31
2017-05-04T02:19:10.349Z,51.18
2017-05-04T02:20:12.811Z,51.12
2017-05-04T02:21:11.046Z,51.02
2017-05-04T02:22:11.275Z,51.03
2017-05-04T02:23:10.689Z,51.01
2017-05-04T02:24:13.641Z,50.96
2017-05-04T02:25:12.796Z,50.98
2017-05-04T02:26:13.066Z,50.99
2017-05-04T02:27:12.442Z,51.78
2017-05-04T02:28:11.621Z,51.94
2017-05-04T02:29:12.709Z,51.19
2017-05-04T02:30:14.569Z,51.11
2017-05-04T02:31:14.303Z,51.03
2017-05-04T02:32:11.278Z,50.97
2017-05-04T02:33:13.890Z,50.98
2017-05-04T02:34:14.561Z,50.99
2017-05-04T02:35:13.919Z,51.75
2017-05-04T02:36:12.507Z,51.94
2017-05-04T02:37:12.621Z,52.00
2017-05-04T02:38:14.498Z,52.06
2017-05-04T02:39:13.134Z,52.07
2017-05-04T02:40:12.390Z,52.09
2017-05-04T02:41:12.942Z,52.01
2017-05-04T02:42:11.966Z,52.08
2017-05-04T02:43:13.771Z,52.10
2017-05-04T02:44:12.787Z,52.09
2017-05-04T02:45:13.105Z,52.12
2017-05-04T02:46:12.248Z,52.11
2017-05-04T02:47:13.081Z,52.11
2017-05-04T02:48:12.956Z,52.11
2017-05-04T02:49:12.158Z,52.09
2017-05-04T02:50:12.970Z,52.13
2017-05-04T02:51:09.900Z,52.14
2017-05-04T02:52:15.724Z,52.16
2017-05-04T02:53:11.776Z,52.11
2017-05-04T02:54:13.568Z,51.33
2017-05-04T02:55:11.983Z,51.95
2017-05-04T02:56:13.766Z,52.13
2017-05-04T02:57:13.564Z,52.22
2017-05-04T02:58:12.756Z,52.26
2017-05-04T02:59:13.559Z,52.31
2017-05-04T03:00:12.624Z,52.31
2017-05-04T03:01:11.657Z,52.32
2017-05-04T03:02:13.169Z,52.31
2017-05-04T03:03:12.794Z,52.31
2017-05-04T03:04:13.628Z,52.30
2017-05-04T03:05:12.859Z,52.29
2017-05-04T03:06:11.716Z,52.28
2017-05-04T03:07:12.936Z,52.26
2017-05-04T03:08:12.599Z,52.14
2017-05-04T03:09:11.624Z,51.47
2017-05-04T03:10:12.556Z,51.29
2017-05-04T03:11:13.240Z,51.20
2017-05-04T03:12:13.152Z,51.15
2017-05-04T03:13:12.489Z,51.13
2017-05-04T03:14:12.838Z,51.08
2017-05-04T03:15:13.699Z,51.09
2017-05-04T03:16:13.583Z,51.06
2017-05-04T03:17:13.945Z,51.07
2017-05-04T03:18:12.024Z,51.04
2017-05-04T03:19:12.110Z,51.02
2017-05-04T03:20:12.935Z,51.03
2017-05-04T03:21:12.675Z,51.03
2017-05-04T03:22:11.316Z,50.92
2017-05-04T03:23:13.226Z,50.97
2017-05-04T03:24:12.735Z,51.01
2017-05-04T03:25:13.451Z,51.78
2017-05-04T03:26:12.949Z,51.94
2017-05-04T03:27:12.225Z,51.99
2017-05-04T03:28:13.058Z,52.04
2017-05-04T03:29:11.130Z,52.08
2017-05-04T03:30:13.013Z,52.08
2017-05-04T03:31:10.996Z,52.07
2017-05-04T03:32:13.496Z,52.07
2017-05-04T03:33:12.593Z,52.07
2017-05-04T03:34:14.806Z,52.06
2017-05-04T03:35:12.973Z,52.08
2017-05-04T03:36:14.598Z,52.06
2017-05-04T03:37:14.050Z,52.08
2017-05-04T03:38:12.355Z,52.08
2017-05-04T03:39:13.290Z,52.09
2017-05-04T03:40:13.087Z,52.08
2017-05-04T03:41:12.808Z,52.10
2017-05-04T03:42:13.688Z,52.09
2017-05-04T03:43:12.894Z,52.06
2017-05-04T03:44:14.524Z,52.09
2017-05-04T03:45:13.535Z,52.06
2017-05-04T03:46:13.398Z,51.93
2017-05-04T03:47:12.602Z,51.24
2017-05-04T03:48:12.972Z,51.10
2017-05-04T03:49:11.885Z,51.02
2017-05-04T03:50:13.672Z,50.98
2017-05-04T03:51:11.650Z,50.86
2017-05-04T03:52:13.628Z,51.71
2017-05-04T03:53:11.407Z,51.88
2017-05-04T03:54:12.926Z,51.91
2017-05-04T03:55:12.984Z,51.96
2017-05-04T03:56:12.102Z,52.00
2017-05-04T03:57:12.308Z,51.97
2017-05-04T03:58:13.369Z,51.98
2017-05-04T03:59:15.105Z,52.01
2017-05-04T04:00:12.397Z,52.02
2017-05-04T04:01:13.222Z,52.02
2017-05-04T04:02:11.477Z,52.04
2017-05-04T04:03:13.449Z,51.23
2017-05-04T04:04:13.022Z,51.13
2017-05-04T04:05:12.184Z,51.74
2017-05-04T04:06:12.471Z,51.89
2017-05-04T04:07:13.509Z,51.94
2017-05-04T04:08:13.781Z,51.95
2017-05-04T04:09:13.090Z,51.93
2017-05-04T04:10:12.973Z,51.94
2017-05-04T04:11:12.755Z,51.96
2017-05-04T04:12:13.457Z,51.97
2017-05-04T04:13:14.254Z,51.95
2017-05-04T04:14:11.337Z,51.94
2017-05-04T04:15:13.088Z,51.98
2017-05-04T04:16:12.970Z,51.97
2017-05-04T04:17:13.165Z,51.95
2017-05-04T04:18:12.401Z,51.97
2017-05-04T04:19:12.499Z,51.97
2017-05-04T04:20:14.307Z,51.98
2017-05-04T04:21:14.886Z,51.95
2017-05-04T04:22:13.772Z,51.96
2017-05-04T04:23:14.702Z,51.99
2017-05-04T04:24:14.558Z,51.94
2017-05-04T04:25:15.327Z,51.96
2017-05-04T04:26:13.199Z,51.96
2017-05-04T04:27:12.392Z,51.93
2017-05-04T04:28:13.481Z,51.95
2017-05-04T04:29:12.969Z,51.95
2017-05-04T04:30:12.235Z,51.96
2017-05-04T04:31:10.464Z,51.97
2017-05-04T04:32:13.262Z,51.94
2017-05-04T04:33:13.192Z,51.89
2017-05-04T04:34:12.905Z,51.90
2017-05-04T04:35:13.730Z,51.93
2017-05-04T04:36:12.781Z,51.90
2017-05-04T04:37:14.949Z,51.91
2017-05-04T04:38:13.985Z,51.92
2017-05-04T04:39:12.933Z,51.89
2017-05-04T04:40:12.643Z,51.89
2017-05-04T04:41:13.819Z,51.89
2017-05-04T04:42:13.982Z,51.93
2017-05-04T04:43:12.888Z,51.92
2017-05-04T04:44:13.703Z,51.91
2017-05-04T04:45:13.578Z,51.88
2017-05-04T04:46:13.104Z,51.90
2017-05-04T04:47:12.876Z,51.89
2017-05-04T04:48:13.083Z,51.86
2017-05-04T04:49:14.333Z,51.89
2017-05-04T04:50:11.545Z,51.76
2017-05-04T04:51:13.244Z,51.39
2017-05-04T04:52:13.995Z,51.73
2017-05-04T04:53:12.086Z,51.79
2017-05-04T04:54:12.947Z,51.81
2017-05-04T04:55:12.824Z,51.83
2017-05-04T04:56:14.752Z,51.86
2017-05-04T04:57:12.926Z,51.83
2017-05-04T04:58:12.119Z,51.84
2017-05-04T04:59:13.261Z,51.82
2017-05-04T05:00:12.454Z,51.81
2017-05-04T05:01:13.250Z,51.80
2017-05-04T05:02:13.319Z,51.79
2017-05-04T05:03:12.977Z,51.82
2017-05-04T05:04:11.906Z,51.86
2017-05-04T05:05:11.999Z,51.82
2017-05-04T05:06:12.598Z,51.84
2017-05-04T05:07:12.817Z,51.81
2017-05-04T05:08:13.575Z,51.84
2017-05-04T05:09:12.856Z,51.83
2017-05-04T05:10:13.130Z,51.84
2017-05-04T05:11:13.003Z,51.83
2017-05-04T05:12:12.179Z,51.79
2017-05-04T05:13:11.397Z,51.65
2017-05-04T05:14:13.174Z,51.63
2017-05-04T05:15:12.896Z,51.68
2017-05-04T05:16:13.517Z,51.60
2017-05-04T05:17:12.925Z,51.62
2017-05-04T05:18:13.745Z,51.64
2017-05-04T05:19:12.995Z,51.60
2017-05-04T05:20:12.758Z,51.70
2017-05-04T05:21:13.754Z,51.76
2017-05-04T05:22:13.513Z,51.75
2017-05-04T05:23:13.196Z,51.76
2017-05-04T05:24:12.925Z,51.81
2017-05-04T05:25:14.306Z,51.81
2017-05-04T05:26:13.125Z,51.82
2017-05-04T05:27:15.756Z,51.75
2017-05-04T05:28:14.441Z,51.81
2017-05-04T05:29:13.244Z,51.81
2017-05-04T05:30:12.547Z,51.80
2017-05-04T05:31:13.387Z,51.85
2017-05-04T05:32:12.467Z,51.82
2017-05-04T05:33:14.246Z,51.83
2017-05-04T05:34:12.945Z,51.83
2017-05-04T05:35:12.207Z,51.79
2017-05-04T05:36:12.992Z,51.84
2017-05-04T05:37:13.177Z,51.87
2017-05-04T05:38:12.787Z,51.82
2017-05-04T05:39:13.530Z,51.83
2017-05-04T05:40:14.028Z,51.84
2017-05-04T05:41:12.254Z,51.83
2017-05-04T05:42:14.255Z,51.83
2017-05-04T05:43:12.978Z,51.83
2017-05-04T05:44:14.265Z,51.83
2017-05-04T05:45:13.168Z,51.84
2017-05-04T05:46:13.238Z,51.79
2017-05-04T05:47:09.449Z,51.83
2017-05-04T05:48:12.790Z,51.82
2017-05-04T05:49:14.807Z,51.82
2017-05-04T05:50:13.563Z,51.83
2017-05-04T05:51:13.119Z,51.82
2017-05-04T05:52:14.218Z,51.81
2017-05-04T05:53:11.329Z,51.84
2017-05-04T05:54:12.638Z,51.83
2017-05-04T05:55:13.201Z,51.78
2017-05-04T05:56:13.099Z,51.80
2017-05-04T05:57:12.313Z,51.79
2017-05-04T05:58:13.023Z,51.81
2017-05-04T05:59:12.695Z,51.69
2017-05-04T06:00:11.754Z,50.99
2017-05-04T06:01:11.618Z,50.84
2017-05-04T06:02:12.962Z,50.82
2017-05-04T06:03:12.212Z,50.80
2017-05-04T06:04:12.405Z,50.80
2017-05-04T06:05:11.283Z,50.81
2017-05-04T06:06:13.194Z,50.81
2017-05-04T06:07:12.228Z,50.80
2017-05-04T06:08:12.996Z,50.80
2017-05-04T06:09:12.257Z,50.81
2017-05-04T06:10:14.152Z,50.84
2017-05-04T06:11:11.029Z,51.62
2017-05-04T06:12:12.762Z,50.99
2017-05-04T06:13:12.994Z,50.88
2017-05-04T06:14:12.778Z,50.88
2017-05-04T06:15:13.635Z,50.86
2017-05-04T06:16:12.769Z,50.90
2017-05-04T06:17:13.136Z,50.90
2017-05-04T06:18:13.053Z,50.89
2017-05-04T06:19:11.994Z,50.71
2017-05-04T06:20:12.566Z,50.89
2017-05-04T06:21:12.785Z,50.87
2017-05-04T06:22:13.065Z,50.95
2017-05-04T06:23:13.016Z,51.82
2017-05-04T06:24:12.409Z,51.35
2017-05-04T06:25:12.474Z,47.56
2017-05-04T06:26:10.392Z,47.57
2017-05-04T06:27:12.844Z,46.82
2017-05-04T06:28:13.269Z,45.66
2017-05-04T06:29:12.382Z,48.54
2017-05-04T06:30:13.493Z,49.89
2017-05-04T06:31:12.421Z,49.29
2017-05-04T06:32:12.980Z,49.36
2017-05-04T06:33:12.257Z,49.48
2017-05-04T06:34:12.382Z,50.11
2017-05-04T06:35:12.486Z,50.25
2017-05-04T06:36:15.064Z,50.23
2017-05-04T06:37:12.785Z,50.45
2017-05-04T06:38:13.561Z,50.59
2017-05-04T06:39:12.753Z,50.71
2017-05-04T06:40:12.974Z,50.82
2017-05-04T06:41:14.071Z,50.89
2017-05-04T06:42:12.776Z,50.80
2017-05-04T06:43:14.465Z,50.20
2017-05-04T06:44:13.257Z,50.03
2017-05-04T06:45:13.731Z,49.97
2017-05-04T06:46:12.913Z,49.94
2017-05-04T06:47:14.043Z,49.94
2017-05-04T06:48:12.552Z,50.08
2017-05-04T06:49:14.428Z,50.75
2017-05-04T06:50:09.938Z,50.92
2017-05-04T06:51:12.433Z,50.97
2017-05-04T06:52:12.373Z,51.03
2017-05-04T06:53:18.170Z,51.06
2017-05-04T06:54:13.821Z,51.08
2017-05-04T06:55:11.718Z,50.99
2017-05-04T06:56:15.447Z,50.32
2017-05-04T06:57:12.625Z,50.96
2017-05-04T06:58:14.223Z,51.08
2017-05-04T06:59:12.326Z,51.13
2017-05-04T07:00:13.181Z,51.16
2017-05-04T07:01:12.859Z,51.19
2017-05-04T07:02:13.753Z,51.22
2017-05-04T07:03:13.017Z,51.22
2017-05-04T07:04:12.163Z,51.25
2017-05-04T07:05:14.026Z,51.26
2017-05-04T07:06:13.803Z,51.28
2017-05-04T07:07:13.566Z,51.29
2017-05-04T07:08:12.595Z,51.30
2017-05-04T07:09:14.467Z,51.31
2017-05-04T07:10:12.646Z,51.34
2017-05-04T07:11:13.721Z,51.35
2017-05-04T07:12:13.270Z,51.36
2017-05-04T07:13:11.345Z,51.39
2017-05-04T07:14:14.196Z,51.38
2017-05-04T07:15:12.405Z,51.36
2017-05-04T07:16:12.526Z,51.37
2017-05-04T07:17:12.001Z,51.40
2017-05-04T07:18:12.419Z,51.43
2017-05-04T07:19:12.601Z,51.56
2017-05-04T07:20:13.180Z,51.83
2017-05-04T07:21:12.811Z,52.07
2017-05-04T07:22:13.488Z,52.12
2017-05-04T07:23:12.726Z,52.11
2017-05-04T07:24:13.488Z,52.67
2017-05-04T07:25:11.467Z,52.95
2017-05-04T07:26:13.196Z,51.99
2017-05-04T07:27:12.806Z,51.83
2017-05-04T07:28:12.927Z,51.48
2017-05-04T07:29:10.790Z,51.32
2017-05-04T07:30:13.726Z,51.34
2017-05-04T07:31:13.253Z,51.47
2017-05-04T07:32:12.723Z,51.59
2017-05-04T07:33:11.709Z,52.47
2017-05-04T07:34:12.997Z,52.40
2017-05-04T07:35:12.187Z,52.59
2017-05-04T07:36:10.922Z,52.70
2017-05-04T07:37:12.977Z,52.14
2017-05-04T07:38:12.017Z,51.96
2017-05-04T07:39:12.745Z,51.65
2017-05-04T07:40:13.606Z,51.27
2017-05-04T07:41:12.987Z,51.25
2017-05-04T07:42:12.517Z,50.79
2017-05-04T07:43:11.525Z,50.91
2017-05-04T07:44:13.043Z,51.85
2017-05-04T07:45:13.945Z,51.41
2017-05-04T07:46:13.666Z,51.46
2017-05-04T07:47:12.915Z,51.40
2017-05-04T07:48:15.225Z,51.44
2017-05-04T07:49:13.277Z,51.47
2017-05-04T07:50:13.490Z,50.08
2017-05-04T07:51:12.642Z,49.07
2017-05-04T07:52:13.447Z,48.39
2017-05-04T07:53:13.694Z,47.20
2017-05-04T07:54:13.253Z,46.70
2017-05-04T07:55:12.386Z,45.87
2017-05-04T07:56:12.582Z,46.10
2017-05-04T07:57:13.132Z,45.52
2017-05-04T07:58:12.398Z,45.50
2017-05-04T07:59:12.601Z,46.74
2017-05-04T08:00:13.542Z,47.33
2017-05-04T08:01:13.196Z,47.37
2017-05-04T08:02:12.403Z,48.17
2017-05-04T08:03:12.591Z,48.52
2017-05-04T08:04:11.764Z,48.80
2017-05-04T08:05:12.776Z,48.16
2017-05-04T08:06:14.582Z,48.21
2017-05-04T08:07:13.449Z,48.19
2017-05-04T08:08:12.971Z,47.93
2017-05-04T08:09:12.790Z,48.52
2017-05-04T08:10:13.720Z,48.84
2017-05-04T08:11:14.438Z,49.01
2017-05-04T08:12:12.730Z,49.02
2017-05-04T08:13:12.775Z,48.93
2017-05-04T08:14:22.030Z,48.93
2017-05-04T08:15:12.915Z,48.31
2017-05-04T08:16:13.750Z,48.82
2017-05-04T08:17:13.811Z,48.87
2017-05-04T08:18:13.572Z,48.89
2017-05-04T08:19:12.778Z,48.83
2017-05-04T08:20:13.618Z,48.89
2017-05-04T08:21:12.758Z,48.85
2017-05-04T08:22:13.591Z,48.73
2017-05-04T08:23:13.217Z,48.61
2017-05-04T08:24:13.144Z,48.60
2017-05-04T08:25:12.887Z,48.63
2017-05-04T08:26:13.039Z,48.63
2017-05-04T08:27:11.951Z,48.35
2017-05-04T08:28:13.798Z,48.03
2017-05-04T08:29:12.795Z,48.50
2017-05-04T08:30:12.995Z,48.34
2017-05-04T08:31:12.233Z,48.48
2017-05-04T08:32:13.056Z,48.41
2017-05-04T08:33:12.774Z,48.41
2017-05-04T08:34:14.072Z,48.29
2017-05-04T08:35:12.647Z,48.42
2017-05-04T08:36:12.580Z,48.44
2017-05-04T08:37:12.492Z,48.34
2017-05-04T08:38:12.576Z,48.31
2017-05-04T08:39:12.984Z,48.30
2017-05-04T08:40:12.701Z,48.18
2017-05-04T08:41:15.516Z,47.96
2017-05-04T08:42:13.387Z,48.00
2017-05-04T08:43:12.968Z,48.10
2017-05-04T08:44:12.240Z,48.09
2017-05-04T08:45:12.635Z,47.90
2017-05-04T08:46:13.492Z,47.88
2017-05-04T08:47:13.257Z,47.82
2017-05-04T08:48:12.408Z,47.44
2017-05-04T08:49:13.976Z,47.35
2017-05-04T08:50:12.217Z,47.55
2017-05-04T08:51:13.718Z,47.59
2017-05-04T08:52:13.736Z,47.59
2017-05-04T08:53:11.514Z,47.32
2017-05-04T08:54:12.980Z,47.60
2017-05-04T08:55:12.909Z,47.60
2017-05-04T08:56:13.712Z,47.52
2017-05-04T08:57:14.500Z,47.36
2017-05-04T08:58:14.268Z,47.26
2017-05-04T08:59:12.445Z,47.16
2017-05-04T09:00:12.607Z,47.30
2017-05-04T09:01:13.611Z,47.35
2017-05-04T09:02:12.929Z,47.34
2017-05-04T09:03:13.245Z,47.22
2017-05-04T09:04:12.467Z,47.32
2017-05-04T09:05:12.669Z,47.42
2017-05-04T09:06:13.438Z,47.44
2017-05-04T09:07:13.172Z,47.37
2017-05-04T09:08:13.055Z,47.36
2017-05-04T09:09:20.588Z,47.10
2017-05-04T09:10:13.270Z,47.55
2017-05-04T09:11:12.589Z,47.29
2017-05-04T09:12:13.479Z,47.32
2017-05-04T09:13:11.705Z,47.43
2017-05-04T09:14:12.925Z,47.43
2017-05-04T09:15:13.075Z,47.48
2017-05-04T09:16:12.898Z,47.25
2017-05-04T09:17:13.821Z,47.26
2017-05-04T09:18:13.048Z,47.51
2017-05-04T09:19:11.171Z,47.13
2017-05-04T09:20:11.281Z,46.73
2017-05-04T09:21:12.997Z,47.13
2017-05-04T09:22:15.022Z,47.02
2017-05-04T09:23:12.390Z,47.11
2017-05-04T09:24:13.245Z,47.17
2017-05-04T09:25:13.112Z,46.92
2017-05-04T09:26:12.477Z,47.25
2017-05-04T09:27:12.790Z,46.83
2017-05-04T09:28:13.571Z,47.11
2017-05-04T09:29:12.749Z,47.13
2017-05-04T09:30:13.461Z,47.13
2017-05-04T09:31:11.264Z,46.96
2017-05-04T09:32:12.598Z,47.05
2017-05-04T09:33:12.990Z,47.12
2017-05-04T09:34:12.770Z,46.95
2017-05-04T09:35:12.894Z,46.65
2017-05-04T09:36:13.680Z,46.62
2017-05-04T09:37:10.469Z,46.93
2017-05-04T09:38:14.258Z,46.77
2017-05-04T09:39:11.317Z,46.80
2017-05-04T09:40:12.856Z,46.36
2017-05-04T09:41:14.812Z,46.30
2017-05-04T09:42:12.818Z,46.26
2017-05-04T09:43:13.766Z,46.58
2017-05-04T09:44:13.504Z,46.36
2017-05-04T09:45:12.876Z,46.12
2017-05-04T09:46:12.947Z,45.73
2017-05-04T09:47:12.120Z,46.15
2017-05-04T09:48:12.389Z,45.89
2017-05-04T09:49:12.732Z,46.15
2017-05-04T09:50:11.377Z,46.19
2017-05-04T09:51:14.192Z,45.82
2017-05-04T09:52:14.410Z,46.02
2017-05-04T09:53:12.609Z,45.70
2017-05-04T09:54:14.234Z,45.80
2017-05-04T09:55:13.141Z,45.59
2017-05-04T09:56:13.266Z,44.84
2017-05-04T09:57:14.106Z,44.82
2017-05-04T09:58:18.701Z,44.80
2017-05-04T09:59:13.409Z,45.40
2017-05-04T10:00:12.674Z,45.55
2017-05-04T10:01:10.854Z,45.42
2017-05-04T10:02:12.857Z,45.21
2017-05-04T10:03:12.854Z,45.38
2017-05-04T10:04:13.174Z,45.49
2017-05-04T10:05:12.974Z,45.29
2017-05-04T10:06:12.608Z,45.54
2017-05-04T10:07:13.204Z,45.36
2017-05-04T10:08:12.965Z,45.50
2017-05-04T10:09:12.710Z,45.50
2017-05-04T10:10:13.424Z,45.62
2017-05-04T10:11:12.932Z,45.71
2017-05-04T10:12:10.321Z,45.87
2017-05-04T10:13:13.129Z,45.66
2017-05-04T10:14:12.423Z,45.81
2017-05-04T10:15:14.172Z,45.80
2017-05-04T10:16:13.226Z,45.65
2017-05-04T10:17:12.957Z,45.65
2017-05-04T10:18:12.649Z,45.04
2017-05-04T10:19:14.359Z,44.78
2017-05-04T10:20:12.500Z,44.79
2017-05-04T10:21:13.638Z,44.48
2017-05-04T10:22:12.742Z,44.71
2017-05-04T10:23:13.448Z,45.40
2017-05-04T10:24:13.228Z,45.50
2017-05-04T10:25:12.940Z,45.55
2017-05-04T10:26:13.896Z,45.63
2017-05-04T10:27:13.666Z,45.48
2017-05-04T10:28:13.496Z,45.41
2017-05-04T10:29:12.959Z,44.90
2017-05-04T10:30:12.943Z,45.42
2017-05-04T10:31:12.161Z,45.47
2017-05-04T10:32:12.220Z,45.48
2017-05-04T10:33:12.951Z,45.62
2017-05-04T10:34:13.591Z,45.73
2017-05-04T10:35:14.146Z,45.31
2017-05-04T10:36:13.831Z,45.41
2017-05-04T10:37:13.697Z,45.57
2017-05-04T10:38:13.218Z,45.66
2017-05-04T10:39:12.971Z,45.82
2017-05-04T10:40:12.795Z,45.93
2017-05-04T10:41:12.758Z,45.83
2017-05-04T10:42:13.050Z,46.13
2017-05-04T10:43:13.782Z,46.52
2017-05-04T10:44:14.094Z,46.58
2017-05-04T10:45:12.197Z,46.62
2017-05-04T10:46:13.223Z,46.56
2017-05-04T10:47:12.402Z,46.58
2017-05-04T10:48:13.163Z,46.70
2017-05-04T10:49:12.750Z,46.04
2017-05-04T10:50:13.522Z,45.84
2017-05-04T10:51:14.210Z,45.67
2017-05-04T10:52:13.377Z,45.78
2017-05-04T10:53:13.004Z,46.33
2017-05-04T10:54:12.013Z,46.40
2017-05-04T10:55:12.689Z,46.42
2017-05-04T10:56:12.888Z,46.47
2017-05-04T10:57:14.256Z,46.48
2017-05-04T10:58:12.933Z,46.50
2017-05-04T10:59:13.467Z,46.48
2017-05-04T11:00:13.040Z,46.61
2017-05-04T11:01:12.752Z,46.48
2017-05-04T11:02:12.965Z,46.53
2017-05-04T11:03:13.074Z,46.52
2017-05-04T11:04:12.896Z,46.49
2017-05-04T11:05:13.586Z,46.53
2017-05-04T11:06:14.261Z,46.46
2017-05-04T11:07:12.594Z,46.59
2017-05-04T11:08:13.716Z,46.51
2017-05-04T11:09:12.991Z,46.51
2017-05-04T11:10:12.269Z,46.55
2017-05-04T11:11:12.994Z,46.61
2017-05-04T11:12:13.705Z,46.61
2017-05-04T11:13:11.794Z,46.62
2017-05-04T11:14:14.831Z,46.76
2017-05-04T11:15:13.668Z,46.80
2017-05-04T11:16:13.162Z,46.93
2017-05-04T11:17:12.602Z,46.96
2017-05-04T11:18:12.783Z,46.95
2017-05-04T11:19:13.612Z,46.96
2017-05-04T11:20:13.470Z,47.01
2017-05-04T11:21:12.685Z,47.07
2017-05-04T11:22:13.411Z,46.99
2017-05-04T11:23:13.564Z,46.93
2017-05-04T11:24:13.180Z,46.90
2017-05-04T11:25:09.470Z,46.85
2017-05-04T11:26:13.914Z,46.86
2017-05-04T11:27:13.675Z,46.84
2017-05-04T11:28:12.761Z,47.00
2017-05-04T11:29:15.571Z,46.92
2017-05-04T11:30:11.669Z,46.78
2017-05-04T11:31:13.762Z,46.21
2017-05-04T11:32:12.970Z,46.08
2017-05-04T11:33:12.712Z,45.93
2017-05-04T11:34:13.193Z,45.92
2017-05-04T11:35:13.095Z,45.96
2017-05-04T11:36:12.955Z,46.64
2017-05-04T11:37:11.961Z,46.76
2017-05-04T11:38:10.791Z,46.79
2017-05-04T11:39:13.582Z,46.73
2017-05-04T11:40:13.461Z,46.83
2017-05-04T11:41:12.725Z,46.94
2017-05-04T11:42:13.342Z,46.97
2017-05-04T11:43:13.099Z,46.96
2017-05-04T11:44:11.058Z,46.97
2017-05-04T11:45:12.952Z,46.97
2017-05-04T11:46:11.928Z,47.00
2017-05-04T11:47:11.926Z,47.00
2017-05-04T11:48:12.056Z,46.93
2017-05-04T11:49:13.128Z,46.86
2017-05-04T11:50:12.271Z,46.91
2017-05-04T11:51:12.995Z,46.93
2017-05-04T11:52:12.009Z,46.88
2017-05-04T11:53:12.212Z,46.92
2017-05-04T11:54:12.420Z,46.90
2017-05-04T11:55:13.184Z,46.94
2017-05-04T11:56:13.068Z,46.96
2017-05-04T11:57:12.230Z,46.98
2017-05-04T11:58:12.969Z,47.02
2017-05-04T11:59:12.149Z,47.03
2017-05-04T12:00:13.746Z,47.07
2017-05-04T12:01:13.583Z,47.00
2017-05-04T12:02:13.948Z,47.02
2017-05-04T12:03:12.234Z,46.97
2017-05-04T12:04:12.354Z,47.01
2017-05-04T12:05:13.204Z,46.99
2017-05-04T12:06:12.852Z,46.97
2017-05-04T12:07:13.670Z,46.92
2017-05-04T12:08:14.763Z,46.99
2017-05-04T12:09:12.872Z,47.02
2017-05-04T12:10:13.072Z,46.88
2017-05-04T12:11:12.233Z,46.80
2017-05-04T12:12:12.417Z,46.82
2017-05-04T12:13:14.214Z,46.83
2017-05-04T12:14:12.817Z,46.75
2017-05-04T12:15:13.474Z,46.73
2017-05-04T12:16:12.763Z,46.73
2017-05-04T12:17:12.994Z,46.90
2017-05-04T12:18:12.081Z,47.00
2017-05-04T12:19:12.180Z,46.95
2017-05-04T12:20:12.820Z,47.06
2017-05-04T12:21:13.088Z,47.30
2017-05-04T12:22:12.571Z,47.41
2017-05-04T12:23:10.502Z,47.50
2017-05-04T12:24:14.246Z,47.66
2017-05-04T12:25:12.600Z,47.58
2017-05-04T12:26:13.366Z,47.46
2017-05-04T12:27:12.560Z,46.86
2017-05-04T12:28:10.854Z,46.73
2017-05-04T12:29:12.607Z,46.67
2017-05-04T12:30:12.630Z,46.67
2017-05-04T12:31:13.138Z,46.67
2017-05-04T12:32:12.402Z,46.61
2017-05-04T12:33:12.964Z,46.66
2017-05-04T12:34:12.616Z,46.83
2017-05-04T12:35:12.795Z,47.35
2017-05-04T12:36:12.998Z,47.58
2017-05-04T12:37:12.237Z,47.68
2017-05-04T12:38:12.222Z,47.57
2017-05-04T12:39:11.184Z,47.53
2017-05-04T12:40:12.856Z,47.46
2017-05-04T12:41:18.506Z,47.49
2017-05-04T12:42:13.234Z,47.51
2017-05-04T12:43:12.846Z,47.47
2017-05-04T12:44:13.773Z,47.53
2017-05-04T12:45:11.711Z,47.51
2017-05-04T12:46:13.796Z,47.48
2017-05-04T12:47:13.341Z,47.50
2017-05-04T12:48:14.978Z,47.59
2017-05-04T12:49:12.549Z,47.64
2017-05-04T12:50:11.609Z,48.15
2017-05-04T12:51:12.941Z,48.14
2017-05-04T12:52:12.260Z,47.91
2017-05-04T12:53:12.415Z,47.81
2017-05-04T12:54:11.595Z,47.86
2017-05-04T12:55:13.240Z,47.85
2017-05-04T12:56:12.428Z,47.90